SHT16H EGLL-EGPE
Flight info
| Callsign | SHT16H |
|---|---|
| Flight time | 1h 8m |
| Altitude | 38000 |
| Route | ULTIB1J ULTIB T420 TNT UN57 POL UN601 RIBEL DCT SHAPP DCT INREV DCT TLA DCT FOYLE/N0408F250 N560 NESDI DCT GUSSI DCT |
| Aircraft | A319/M-SDE2E3FGHIRWXY/S |
Departure
| Time | 2026-05-04 20:29 |
|---|---|
| Airport | London Heathrow Airport (EGLL) |
Arrival
| Time | 2026-05-04 21:38 |
|---|---|
| Airport | Inverness Airport (EGPE) |
| Time | Latitude | Longitude | Altitude | Speed | Heading |
|---|---|---|---|---|---|
| 2026-05-04 19:36 | 51.47401 | -0.48832 | 87 ft | 0 kts | 179° |
| 2026-05-04 20:19 | 51.47437 | -0.48832 | 87 ft | 3 kts | 179° |
| 2026-05-04 20:19 | 51.47438 | -0.48833 | 87 ft | 0 kts | 184° |
| 2026-05-04 20:22 | 51.47436 | -0.48833 | 87 ft | 2 kts | 182° |
| 2026-05-04 20:22 | 51.47434 | -0.48821 | 87 ft | 0 kts | 99° |
| 2026-05-04 20:22 | 51.47440 | -0.48798 | 88 ft | 5 kts | 68° |
| 2026-05-04 20:22 | 51.47467 | -0.48771 | 87 ft | 6 kts | 14° |
| 2026-05-04 20:23 | 51.47481 | -0.48731 | 89 ft | 0 kts | 92° |
| 2026-05-04 20:23 | 51.47481 | -0.48719 | 90 ft | 3 kts | 92° |
| 2026-05-04 20:24 | 51.47481 | -0.48653 | 149 ft | 8 kts | 84° |
| 2026-05-04 20:24 | 51.47486 | -0.48571 | 87 ft | 11 kts | 85° |
| 2026-05-04 20:24 | 51.47487 | -0.48555 | 88 ft | 12 kts | 85° |
| 2026-05-04 20:24 | 51.47423 | -0.48362 | 87 ft | 17 kts | 181° |
| 2026-05-04 20:25 | 51.47312 | -0.48360 | 99 ft | 19 kts | 179° |
| 2026-05-04 20:25 | 51.47118 | -0.48357 | 87 ft | 23 kts | 180° |
| 2026-05-04 20:25 | 51.47064 | -0.48357 | 87 ft | 24 kts | 180° |
| 2026-05-04 20:25 | 51.46919 | -0.48358 | 87 ft | 6 kts | 180° |
| 2026-05-04 20:26 | 51.46886 | -0.48358 | 87 ft | 8 kts | 180° |
| 2026-05-04 20:26 | 51.46847 | -0.48358 | 87 ft | 0 kts | 180° |
| 2026-05-04 20:26 | 51.46844 | -0.48358 | 87 ft | 2 kts | 180° |
| 2026-05-04 20:26 | 51.46822 | -0.48358 | 87 ft | 5 kts | 180° |
| 2026-05-04 20:27 | 51.46787 | -0.48358 | 93 ft | 8 kts | 180° |
| 2026-05-04 20:27 | 51.46744 | -0.48420 | 89 ft | 10 kts | 261° |
| 2026-05-04 20:27 | 51.46741 | -0.48573 | 87 ft | 15 kts | 270° |
| 2026-05-04 20:27 | 51.46714 | -0.48746 | 87 ft | 16 kts | 209° |
| 2026-05-04 20:28 | 51.46647 | -0.48756 | 112 ft | 10 kts | 208° |
| 2026-05-04 20:28 | 51.46562 | -0.48785 | 88 ft | 13 kts | 178° |
| 2026-05-04 20:28 | 51.46499 | -0.48742 | 91 ft | 14 kts | 133° |
| 2026-05-04 20:28 | 51.46480 | -0.48531 | 88 ft | 18 kts | 91° |
| 2026-05-04 20:29 | 51.46475 | -0.48165 | 88 ft | 62 kts | 91° |
| 2026-05-04 20:29 | 51.46477 | -0.47482 | 86 ft | 108 kts | 88° |
| 2026-05-04 20:29 | 51.46508 | -0.45379 | 203 ft | 166 kts | 90° |
| 2026-05-04 20:29 | 51.46515 | -0.43463 | 752 ft | 174 kts | 86° |
| 2026-05-04 20:30 | 51.46571 | -0.42007 | 1290 ft | 173 kts | 79° |
| 2026-05-04 20:30 | 51.47033 | -0.40354 | 1777 ft | 185 kts | 53° |
| 2026-05-04 20:30 | 51.48083 | -0.38318 | 2187 ft | 210 kts | 50° |
| 2026-05-04 20:30 | 51.48962 | -0.36639 | 2709 ft | 223 kts | 50° |
| 2026-05-04 20:31 | 51.49916 | -0.34816 | 3470 ft | 229 kts | 50° |
| 2026-05-04 20:31 | 51.51091 | -0.32562 | 4177 ft | 251 kts | 50° |
| 2026-05-04 20:31 | 51.51589 | -0.31604 | 4541 ft | 256 kts | 50° |
| 2026-05-04 20:31 | 51.52795 | -0.27750 | 5729 ft | 272 kts | 70° |
| 2026-05-04 20:32 | 51.53489 | -0.24486 | 5965 ft | 274 kts | 71° |
| 2026-05-04 20:32 | 51.54165 | -0.21353 | 6009 ft | 274 kts | 67° |
| 2026-05-04 20:32 | 51.55032 | -0.19365 | 6008 ft | 272 kts | 40° |
| 2026-05-04 20:32 | 51.56733 | -0.18156 | 6007 ft | 270 kts | 4° |
| 2026-05-04 20:33 | 51.58923 | -0.19081 | 6070 ft | 271 kts | 327° |
| 2026-05-04 20:33 | 51.59801 | -0.20091 | 6063 ft | 271 kts | 319° |
| 2026-05-04 20:33 | 51.60068 | -0.20447 | 6053 ft | 269 kts | 317° |
| 2026-05-04 20:34 | 51.63238 | -0.25078 | 6037 ft | 267 kts | 318° |
| 2026-05-04 20:34 | 51.65816 | -0.28035 | 5951 ft | 272 kts | 328° |
| 2026-05-04 20:34 | 51.69130 | -0.31089 | 7127 ft | 274 kts | 329° |
| 2026-05-04 20:35 | 51.70791 | -0.32607 | 8033 ft | 278 kts | 329° |
| 2026-05-04 20:35 | 51.72619 | -0.34299 | 9111 ft | 283 kts | 328° |
| 2026-05-04 20:35 | 51.74282 | -0.35867 | 10032 ft | 286 kts | 327° |
| 2026-05-04 20:35 | 51.75971 | -0.37481 | 10493 ft | 303 kts | 328° |
| 2026-05-04 20:36 | 51.78059 | -0.39495 | 10738 ft | 327 kts | 328° |
| 2026-05-04 20:36 | 51.79859 | -0.41236 | 11220 ft | 336 kts | 328° |
| 2026-05-04 20:36 | 51.81899 | -0.43210 | 12013 ft | 338 kts | 328° |
| 2026-05-04 20:36 | 51.83906 | -0.45155 | 12789 ft | 341 kts | 328° |
| 2026-05-04 20:37 | 51.85959 | -0.47151 | 13509 ft | 345 kts | 328° |
| 2026-05-04 20:37 | 51.88040 | -0.49178 | 14165 ft | 350 kts | 328° |
| 2026-05-04 20:37 | 51.90156 | -0.51238 | 14787 ft | 354 kts | 328° |
| 2026-05-04 20:37 | 51.92264 | -0.53292 | 15398 ft | 359 kts | 328° |
| 2026-05-04 20:38 | 51.94412 | -0.55386 | 16006 ft | 363 kts | 328° |
| 2026-05-04 20:38 | 51.96630 | -0.57548 | 16629 ft | 367 kts | 328° |
| 2026-05-04 20:38 | 51.98795 | -0.59662 | 17224 ft | 371 kts | 328° |
| 2026-05-04 20:38 | 52.01022 | -0.61843 | 17850 ft | 375 kts | 327° |
| 2026-05-04 20:39 | 52.03266 | -0.64042 | 18440 ft | 379 kts | 327° |
| 2026-05-04 20:39 | 52.05623 | -0.66352 | 18995 ft | 383 kts | 327° |
| 2026-05-04 20:39 | 52.07853 | -0.68543 | 19575 ft | 385 kts | 327° |
| 2026-05-04 20:39 | 52.10159 | -0.70817 | 20184 ft | 389 kts | 327° |
| 2026-05-04 20:40 | 52.12478 | -0.73107 | 20782 ft | 392 kts | 326° |
| 2026-05-04 20:40 | 52.14817 | -0.75417 | 21373 ft | 395 kts | 326° |
| 2026-05-04 20:40 | 52.17175 | -0.77748 | 21947 ft | 398 kts | 326° |
| 2026-05-04 20:40 | 52.19552 | -0.80098 | 22515 ft | 402 kts | 326° |
| 2026-05-04 20:41 | 52.21997 | -0.82516 | 23085 ft | 405 kts | 326° |
| 2026-05-04 20:41 | 52.24366 | -0.84860 | 23607 ft | 408 kts | 326° |
| 2026-05-04 20:41 | 52.26806 | -0.87280 | 24053 ft | 411 kts | 326° |
| 2026-05-04 20:41 | 52.29310 | -0.89767 | 24515 ft | 413 kts | 325° |
| 2026-05-04 20:42 | 52.31728 | -0.92173 | 25029 ft | 413 kts | 326° |
| 2026-05-04 20:42 | 52.34229 | -0.94663 | 25510 ft | 415 kts | 326° |
| 2026-05-04 20:42 | 52.36675 | -0.97104 | 25930 ft | 418 kts | 326° |
| 2026-05-04 20:42 | 52.39194 | -0.99623 | 26365 ft | 421 kts | 326° |
| 2026-05-04 20:43 | 52.41670 | -1.02098 | 26753 ft | 424 kts | 326° |
| 2026-05-04 20:43 | 52.44201 | -1.04629 | 27161 ft | 427 kts | 326° |
| 2026-05-04 20:43 | 52.46741 | -1.07175 | 27563 ft | 430 kts | 326° |
| 2026-05-04 20:43 | 52.49272 | -1.09712 | 27956 ft | 432 kts | 326° |
| 2026-05-04 20:44 | 52.51846 | -1.12294 | 28324 ft | 435 kts | 326° |
| 2026-05-04 20:44 | 52.54465 | -1.14931 | 28681 ft | 437 kts | 326° |
| 2026-05-04 20:44 | 52.57069 | -1.17556 | 29023 ft | 440 kts | 327° |
| 2026-05-04 20:44 | 52.59649 | -1.20157 | 29368 ft | 442 kts | 327° |
| 2026-05-04 20:45 | 52.62316 | -1.22848 | 29716 ft | 445 kts | 327° |
| 2026-05-04 20:45 | 52.64956 | -1.25520 | 30046 ft | 447 kts | 327° |
| 2026-05-04 20:45 | 52.67618 | -1.28223 | 30337 ft | 450 kts | 327° |
| 2026-05-04 20:45 | 52.70283 | -1.30932 | 30626 ft | 451 kts | 327° |
| 2026-05-04 20:46 | 52.72960 | -1.33653 | 30908 ft | 453 kts | 327° |
| 2026-05-04 20:46 | 52.75653 | -1.36394 | 31235 ft | 455 kts | 327° |
| 2026-05-04 20:46 | 52.78346 | -1.39135 | 31523 ft | 456 kts | 328° |
| 2026-05-04 20:46 | 52.81058 | -1.41895 | 31897 ft | 455 kts | 328° |
| 2026-05-04 20:47 | 52.83737 | -1.44627 | 32311 ft | 453 kts | 328° |
| 2026-05-04 20:47 | 52.86424 | -1.47384 | 32715 ft | 452 kts | 328° |
| 2026-05-04 20:47 | 52.89079 | -1.50122 | 33115 ft | 451 kts | 328° |
| 2026-05-04 20:47 | 52.91740 | -1.52867 | 33521 ft | 450 kts | 329° |
| 2026-05-04 20:48 | 52.94402 | -1.55609 | 33942 ft | 449 kts | 329° |
| 2026-05-04 20:48 | 52.97051 | -1.58338 | 34304 ft | 448 kts | 329° |
| 2026-05-04 20:48 | 52.99703 | -1.61075 | 34628 ft | 448 kts | 329° |
| 2026-05-04 20:48 | 53.02343 | -1.63808 | 34964 ft | 447 kts | 330° |
| 2026-05-04 20:49 | 53.05009 | -1.66452 | 35289 ft | 445 kts | 334° |
| 2026-05-04 20:49 | 53.07879 | -1.68534 | 35584 ft | 444 kts | 341° |
| 2026-05-04 20:49 | 53.10790 | -1.70341 | 35865 ft | 444 kts | 341° |
| 2026-05-04 20:49 | 53.13674 | -1.72123 | 36137 ft | 445 kts | 340° |
| 2026-05-04 20:50 | 53.16576 | -1.73916 | 36405 ft | 445 kts | 340° |
| 2026-05-04 20:50 | 53.19484 | -1.75717 | 36668 ft | 446 kts | 340° |
| 2026-05-04 20:50 | 53.22388 | -1.77521 | 36924 ft | 446 kts | 340° |
| 2026-05-04 20:50 | 53.25301 | -1.79334 | 37197 ft | 446 kts | 340° |
| 2026-05-04 20:51 | 53.28203 | -1.81144 | 37497 ft | 445 kts | 339° |
| 2026-05-04 20:51 | 53.31104 | -1.82955 | 37749 ft | 445 kts | 339° |
| 2026-05-04 20:51 | 53.34003 | -1.84769 | 37984 ft | 446 kts | 339° |
| 2026-05-04 20:51 | 53.35968 | -1.86001 | 38051 ft | 446 kts | 339° |
| 2026-05-04 20:52 | 53.41775 | -1.89643 | 38071 ft | 445 kts | 339° |
| 2026-05-04 20:52 | 53.47622 | -1.93324 | 38059 ft | 445 kts | 339° |
| 2026-05-04 20:53 | 53.53463 | -1.97014 | 38060 ft | 445 kts | 339° |
| 2026-05-04 20:53 | 53.59349 | -2.00744 | 38059 ft | 445 kts | 339° |
| 2026-05-04 20:54 | 53.65049 | -2.04368 | 38063 ft | 445 kts | 339° |
| 2026-05-04 20:54 | 53.70866 | -2.08076 | 38061 ft | 445 kts | 339° |
| 2026-05-04 20:55 | 53.76691 | -2.11818 | 38071 ft | 444 kts | 338° |
| 2026-05-04 20:55 | 53.82391 | -2.15701 | 38073 ft | 443 kts | 337° |
| 2026-05-04 20:56 | 53.88104 | -2.19675 | 38072 ft | 442 kts | 337° |
| 2026-05-04 20:56 | 53.93821 | -2.23620 | 38068 ft | 442 kts | 338° |
| 2026-05-04 20:57 | 53.99547 | -2.27548 | 38072 ft | 442 kts | 337° |
| 2026-05-04 20:57 | 54.05244 | -2.31457 | 38060 ft | 442 kts | 337° |
| 2026-05-04 20:58 | 54.10975 | -2.35423 | 38064 ft | 442 kts | 337° |
| 2026-05-04 20:58 | 54.16711 | -2.39393 | 38064 ft | 442 kts | 337° |
| 2026-05-04 20:59 | 54.22442 | -2.43375 | 38064 ft | 442 kts | 337° |
| 2026-05-04 20:59 | 54.28126 | -2.47355 | 38066 ft | 441 kts | 337° |
| 2026-05-04 21:00 | 54.33856 | -2.51373 | 38065 ft | 441 kts | 337° |
| 2026-05-04 21:00 | 54.39532 | -2.55343 | 38064 ft | 441 kts | 337° |
| 2026-05-04 21:01 | 54.45249 | -2.59358 | 38066 ft | 441 kts | 337° |
| 2026-05-04 21:01 | 54.50919 | -2.63367 | 38071 ft | 440 kts | 336° |
| 2026-05-04 21:02 | 54.56610 | -2.67392 | 38078 ft | 440 kts | 336° |
| 2026-05-04 21:02 | 54.62265 | -2.71414 | 38072 ft | 439 kts | 336° |
| 2026-05-04 21:03 | 54.67910 | -2.75446 | 38074 ft | 438 kts | 336° |
| 2026-05-04 21:03 | 54.73621 | -2.79531 | 38089 ft | 438 kts | 336° |
| 2026-05-04 21:04 | 54.79244 | -2.83556 | 38093 ft | 436 kts | 336° |
| 2026-05-04 21:04 | 54.84839 | -2.87565 | 38091 ft | 435 kts | 336° |
| 2026-05-04 21:05 | 54.90465 | -2.91614 | 38086 ft | 434 kts | 335° |
| 2026-05-04 21:05 | 54.95456 | -2.95226 | 38084 ft | 434 kts | 335° |
| 2026-05-04 21:06 | 55.00915 | -2.99194 | 38094 ft | 433 kts | 335° |
| 2026-05-04 21:06 | 55.06579 | -3.03316 | 38089 ft | 431 kts | 335° |
| 2026-05-04 21:07 | 55.12145 | -3.07374 | 38091 ft | 430 kts | 335° |
| 2026-05-04 21:07 | 55.17658 | -3.11414 | 38085 ft | 430 kts | 335° |
| 2026-05-04 21:08 | 55.23248 | -3.15522 | 38088 ft | 429 kts | 334° |
| 2026-05-04 21:08 | 55.28790 | -3.19597 | 38082 ft | 428 kts | 334° |
| 2026-05-04 21:09 | 55.34315 | -3.23672 | 38069 ft | 427 kts | 334° |
| 2026-05-04 21:09 | 55.39827 | -3.27761 | 38068 ft | 427 kts | 334° |
| 2026-05-04 21:10 | 55.45377 | -3.31886 | 38063 ft | 426 kts | 334° |
| 2026-05-04 21:10 | 55.50632 | -3.36625 | 38083 ft | 421 kts | 321° |
| 2026-05-04 21:11 | 55.55063 | -3.43392 | 38073 ft | 418 kts | 316° |
| 2026-05-04 21:11 | 55.58764 | -3.49193 | 38068 ft | 418 kts | 316° |
| 2026-05-04 21:12 | 55.63132 | -3.56020 | 38061 ft | 417 kts | 316° |
| 2026-05-04 21:12 | 55.67564 | -3.63002 | 38058 ft | 417 kts | 316° |
| 2026-05-04 21:13 | 55.69722 | -3.66425 | 37944 ft | 416 kts | 315° |
| 2026-05-04 21:13 | 55.71906 | -3.69900 | 36979 ft | 425 kts | 315° |
| 2026-05-04 21:13 | 55.74126 | -3.73433 | 36097 ft | 432 kts | 315° |
| 2026-05-04 21:13 | 55.76407 | -3.77060 | 35317 ft | 434 kts | 315° |
| 2026-05-04 21:14 | 55.77912 | -3.79455 | 34800 ft | 435 kts | 315° |
| 2026-05-04 21:14 | 55.81443 | -3.84833 | 33913 ft | 434 kts | 323° |
| 2026-05-04 21:14 | 55.86447 | -3.88184 | 33720 ft | 422 kts | 348° |
| 2026-05-04 21:15 | 55.89310 | -3.88727 | 33614 ft | 411 kts | 349° |
| 2026-05-04 21:15 | 55.92125 | -3.89220 | 33515 ft | 409 kts | 349° |
| 2026-05-04 21:15 | 55.94974 | -3.89711 | 33414 ft | 412 kts | 350° |
| 2026-05-04 21:15 | 55.97826 | -3.90202 | 33314 ft | 413 kts | 349° |
| 2026-05-04 21:16 | 56.00708 | -3.90701 | 32672 ft | 418 kts | 349° |
| 2026-05-04 21:16 | 56.03672 | -3.91216 | 32026 ft | 419 kts | 350° |
| 2026-05-04 21:16 | 56.06481 | -3.91701 | 31559 ft | 415 kts | 349° |
| 2026-05-04 21:16 | 56.09368 | -3.92202 | 31028 ft | 413 kts | 349° |
| 2026-05-04 21:17 | 56.12218 | -3.92696 | 30505 ft | 410 kts | 349° |
| 2026-05-04 21:17 | 56.15025 | -3.93183 | 29965 ft | 408 kts | 349° |
| 2026-05-04 21:17 | 56.17722 | -3.93658 | 29429 ft | 405 kts | 349° |
| 2026-05-04 21:17 | 56.20654 | -3.94181 | 28892 ft | 401 kts | 349° |
| 2026-05-04 21:18 | 56.23395 | -3.94670 | 28376 ft | 397 kts | 349° |
| 2026-05-04 21:18 | 56.26146 | -3.95158 | 27865 ft | 395 kts | 349° |
| 2026-05-04 21:18 | 56.28866 | -3.95638 | 27352 ft | 392 kts | 349° |
| 2026-05-04 21:18 | 56.31572 | -3.96115 | 26854 ft | 389 kts | 349° |
| 2026-05-04 21:19 | 56.34253 | -3.96589 | 26361 ft | 387 kts | 349° |
| 2026-05-04 21:19 | 56.36931 | -3.97063 | 25877 ft | 385 kts | 349° |
| 2026-05-04 21:19 | 56.39629 | -3.97545 | 25392 ft | 384 kts | 349° |
| 2026-05-04 21:19 | 56.42281 | -3.98024 | 24941 ft | 382 kts | 349° |
| 2026-05-04 21:20 | 56.44920 | -3.98500 | 24476 ft | 380 kts | 349° |
| 2026-05-04 21:20 | 56.47544 | -3.98970 | 24036 ft | 378 kts | 349° |
| 2026-05-04 21:20 | 56.50156 | -3.99435 | 23593 ft | 376 kts | 349° |
| 2026-05-04 21:20 | 56.52689 | -3.99885 | 23138 ft | 372 kts | 348° |
| 2026-05-04 21:21 | 56.55296 | -4.00351 | 22693 ft | 367 kts | 348° |
| 2026-05-04 21:21 | 56.57824 | -4.00806 | 22266 ft | 363 kts | 348° |
| 2026-05-04 21:21 | 56.60322 | -4.01256 | 21833 ft | 358 kts | 348° |
| 2026-05-04 21:21 | 56.62817 | -4.01555 | 21401 ft | 367 kts | 357° |
| 2026-05-04 21:22 | 56.65402 | -4.00977 | 20984 ft | 375 kts | 3° |
| 2026-05-04 21:22 | 56.67956 | -4.00279 | 20579 ft | 374 kts | 3° |
| 2026-05-04 21:22 | 56.70569 | -3.99563 | 20175 ft | 371 kts | 3° |
| 2026-05-04 21:22 | 56.73104 | -3.98873 | 19810 ft | 369 kts | 3° |
| 2026-05-04 21:23 | 56.75691 | -3.98171 | 19437 ft | 367 kts | 3° |
| 2026-05-04 21:23 | 56.78199 | -3.97487 | 19099 ft | 364 kts | 3° |
| 2026-05-04 21:23 | 56.80627 | -3.96829 | 18744 ft | 362 kts | 3° |
| 2026-05-04 21:23 | 56.83113 | -3.96155 | 18389 ft | 359 kts | 3° |
| 2026-05-04 21:24 | 56.85641 | -3.95543 | 17980 ft | 361 kts | 1° |
| 2026-05-04 21:24 | 56.88087 | -3.95163 | 17575 ft | 355 kts | 0° |
| 2026-05-04 21:24 | 56.90628 | -3.94745 | 17130 ft | 351 kts | 0° |
| 2026-05-04 21:24 | 56.93040 | -3.94347 | 16710 ft | 348 kts | 0° |
| 2026-05-04 21:25 | 56.95528 | -3.93941 | 16279 ft | 346 kts | 0° |
| 2026-05-04 21:25 | 56.97867 | -3.93565 | 15877 ft | 344 kts | 0° |
| 2026-05-04 21:25 | 57.00240 | -3.93190 | 15461 ft | 341 kts | 0° |
| 2026-05-04 21:25 | 57.02592 | -3.92825 | 15012 ft | 339 kts | 0° |
| 2026-05-04 21:26 | 57.04936 | -3.92467 | 14581 ft | 337 kts | 0° |
| 2026-05-04 21:26 | 57.07283 | -3.92105 | 14141 ft | 334 kts | 0° |
| 2026-05-04 21:26 | 57.08881 | -3.91857 | 13844 ft | 332 kts | 0° |
| 2026-05-04 21:26 | 57.11932 | -3.91389 | 13200 ft | 329 kts | 0° |
| 2026-05-04 21:27 | 57.14195 | -3.91047 | 12735 ft | 327 kts | 0° |
| 2026-05-04 21:27 | 57.15758 | -3.90813 | 12430 ft | 325 kts | 0° |
| 2026-05-04 21:27 | 57.17967 | -3.90485 | 11997 ft | 323 kts | 0° |
| 2026-05-04 21:27 | 57.20392 | -3.90127 | 11525 ft | 320 kts | 0° |
| 2026-05-04 21:28 | 57.22424 | -3.89831 | 11131 ft | 318 kts | 0° |
| 2026-05-04 21:28 | 57.24639 | -3.89267 | 10705 ft | 318 kts | 6° |
| 2026-05-04 21:28 | 57.26827 | -3.88531 | 10284 ft | 316 kts | 6° |
| 2026-05-04 21:28 | 57.29066 | -3.87764 | 9847 ft | 311 kts | 6° |
| 2026-05-04 21:29 | 57.31076 | -3.87083 | 9096 ft | 308 kts | 8° |
| 2026-05-04 21:29 | 57.33582 | -3.86321 | 8890 ft | 304 kts | 6° |
| 2026-05-04 21:29 | 57.35656 | -3.85625 | 8405 ft | 303 kts | 6° |
| 2026-05-04 21:29 | 57.37851 | -3.84899 | 7853 ft | 302 kts | 6° |
| 2026-05-04 21:30 | 57.39834 | -3.84261 | 7363 ft | 302 kts | 6° |
| 2026-05-04 21:30 | 57.41925 | -3.83607 | 6851 ft | 301 kts | 6° |
| 2026-05-04 21:30 | 57.43982 | -3.82983 | 6336 ft | 300 kts | 6° |
| 2026-05-04 21:30 | 57.46101 | -3.82358 | 5802 ft | 298 kts | 6° |
| 2026-05-04 21:31 | 57.50059 | -3.81181 | 4897 ft | 276 kts | 6° |
| 2026-05-04 21:31 | 57.51909 | -3.80616 | 4608 ft | 262 kts | 6° |
| 2026-05-04 21:31 | 57.53091 | -3.80250 | 4412 ft | 253 kts | 6° |
| 2026-05-04 21:32 | 57.55390 | -3.79529 | 4019 ft | 238 kts | 6° |
| 2026-05-04 21:32 | 57.56977 | -3.79023 | 3735 ft | 225 kts | 6° |
| 2026-05-04 21:32 | 57.58000 | -3.78692 | 3544 ft | 216 kts | 6° |
| 2026-05-04 21:32 | 57.59453 | -3.78218 | 3262 ft | 209 kts | 6° |
| 2026-05-04 21:33 | 57.60866 | -3.77769 | 2976 ft | 204 kts | 6° |
| 2026-05-04 21:33 | 57.62262 | -3.77421 | 2686 ft | 197 kts | 357° |
| 2026-05-04 21:33 | 57.63479 | -3.78177 | 2490 ft | 182 kts | 322° |
| 2026-05-04 21:33 | 57.64206 | -3.80027 | 2354 ft | 179 kts | 291° |
| 2026-05-04 21:34 | 57.64250 | -3.82350 | 2220 ft | 182 kts | 258° |
| 2026-05-04 21:34 | 57.63588 | -3.84384 | 2116 ft | 187 kts | 231° |
| 2026-05-04 21:34 | 57.62764 | -3.86170 | 2025 ft | 174 kts | 232° |
| 2026-05-04 21:34 | 57.61988 | -3.87861 | 2004 ft | 168 kts | 232° |
| 2026-05-04 21:35 | 57.61220 | -3.89542 | 1951 ft | 167 kts | 232° |
| 2026-05-04 21:35 | 57.60466 | -3.91190 | 1781 ft | 165 kts | 231° |
| 2026-05-04 21:35 | 57.59762 | -3.92727 | 1572 ft | 144 kts | 231° |
| 2026-05-04 21:35 | 57.59145 | -3.94076 | 1395 ft | 135 kts | 231° |
| 2026-05-04 21:36 | 57.58526 | -3.95429 | 1186 ft | 129 kts | 231° |
| 2026-05-04 21:36 | 57.57958 | -3.96669 | 1015 ft | 127 kts | 230° |
| 2026-05-04 21:36 | 57.57573 | -3.97511 | 903 ft | 125 kts | 230° |
| 2026-05-04 21:36 | 57.56824 | -3.99143 | 686 ft | 122 kts | 230° |
| 2026-05-04 21:37 | 57.56276 | -4.00339 | 513 ft | 120 kts | 231° |
| 2026-05-04 21:37 | 57.55728 | -4.01533 | 362 ft | 120 kts | 230° |
| 2026-05-04 21:37 | 57.55149 | -4.02794 | 172 ft | 118 kts | 231° |
| 2026-05-04 21:37 | 57.54655 | -4.03887 | 54 ft | 117 kts | 231° |
| 2026-05-04 21:38 | 57.54250 | -4.04803 | 36 ft | 81 kts | 230° |
| 2026-05-04 21:38 | 57.53962 | -4.05399 | 35 ft | 25 kts | 227° |
| 2026-05-04 21:38 | 57.53872 | -4.05582 | 35 ft | 20 kts | 227° |
| 2026-05-04 21:38 | 57.53775 | -4.05794 | 33 ft | 23 kts | 230° |
| 2026-05-04 21:39 | 57.53723 | -4.05917 | 32 ft | 15 kts | 242° |
| 2026-05-04 21:39 | 57.53768 | -4.06145 | 33 ft | 12 kts | 303° |
| 2026-05-04 21:39 | 57.53840 | -4.06178 | 34 ft | 11 kts | 7° |
| 2026-05-04 21:39 | 57.53911 | -4.06167 | 34 ft | 10 kts | 3° |
| 2026-05-04 21:40 | 57.53974 | -4.06160 | 35 ft | 8 kts | 5° |
| 2026-05-04 21:40 | 57.54028 | -4.06155 | 35 ft | 6 kts | 354° |
| 2026-05-04 21:40 | 57.54041 | -4.06195 | 36 ft | 3 kts | 300° |
| 2026-05-04 21:40 | 57.54043 | -4.06220 | 36 ft | 1 kts | 276° |
| 2026-05-04 21:41 | 57.54044 | -4.06236 | 36 ft | 1 kts | 277° |
| 2026-05-04 21:41 | 57.54045 | -4.06246 | 36 ft | 0 kts | 277° |